Search for airport 
image banner adimage banner adimage banner ad
image banner ad

9G1 - Pittsburgh Northeast

Located in Pittsburgh, United States

ICAO - 9G1, IATA -

Data provided by Airmate  

General information

Coordinates: N40°36'13" W79°49'34"
Elevation is 1063 feet MSL.
Magnetic variation is -09° East
View others Airports in Pennsylvania

Operational data

Special qualification required
Current time UTC:
Current local time:
METAR: KBTP 091156Z AUTO 18006KT 10SM OVC050 06/03 A3004 RMK AO2 SLP186 70001 T00560028 10056 20022 58012
View NOTAMs / SUP AIP / TFR affecting this airport [VIEW]
Communications frequencies: [VIEW]

Runways:

RWY identifierQFULength (ft)Width (ft)SurfaceLDA (ft)
173550100ASPH
353550100ASPH

Airport contact information

Address: Pittsburgh United States

Satellite view of 9G1